Inglewood, California
Current Conditions -  °F | °C
As of 2:53 AM on Sunday 21 Dec 2014 (Local Time) from KHHR Reporting Station
Clear Clear  
Wind Chill: 56°   Ceiling: Unl
Heat Index: 56°   Visibility: 8mi
Dew Point: 48°   Wind: 5mph
Humidity: 75%   Direction: 40°NE
Pressure: 30.13"   Gusts: NA
Location:  33.96°N, 118.35°W
Report Text: KHHR 211053Z AUTO 04004KT 8SM CLR 13/09 A3013 RMK AO2 SLP204 T01330089
Loading
Personal Weather Stations






























Interactive Weather Map New forecast layout! Learn more

10-Day Weather Forecast

Advertisements
Track Severe Weather on mobile